createdAt,value
2024-05-09T00:03:37.337Z,17.70
2024-05-09T00:07:39.311Z,18.83
2024-05-09T00:11:41.404Z,18.63
2024-05-09T00:15:43.620Z,17.58
2024-05-09T00:19:46.955Z,19.33
2024-05-09T00:23:49.249Z,18.97
2024-05-09T00:27:51.429Z,21.70
2024-05-09T00:31:53.543Z,19.67
2024-05-09T00:35:55.610Z,17.92
2024-05-09T00:39:57.743Z,21.35
2024-05-09T00:44:00.304Z,23.77
2024-05-09T00:48:06.658Z,20.25
2024-05-09T00:52:10.463Z,18.50
2024-05-09T00:56:13.106Z,18.25
2024-05-09T01:00:25.954Z,20.00
2024-05-09T01:04:32.875Z,18.73
2024-05-09T01:08:35.119Z,18.75
2024-05-09T01:12:37.237Z,18.17
2024-05-09T01:16:40.035Z,17.23
2024-05-09T01:20:44.649Z,19.95
2024-05-09T01:24:47.507Z,20.90
2024-05-09T01:28:49.510Z,20.73
2024-05-09T01:32:51.662Z,21.33
2024-05-09T01:36:53.806Z,18.90
2024-05-09T01:40:56.122Z,19.35
2024-05-09T01:44:58.380Z,20.52
2024-05-09T01:49:00.840Z,23.05
2024-05-09T01:53:03.039Z,21.52
2024-05-09T01:57:05.559Z,23.63
2024-05-09T02:01:07.803Z,20.08
2024-05-09T02:05:10.056Z,20.10
2024-05-09T02:09:12.195Z,20.13
2024-05-09T02:13:14.668Z,23.15
2024-05-09T02:17:16.793Z,21.15
2024-05-09T02:21:18.953Z,19.33
2024-05-09T02:25:23.300Z,18.15
2024-05-09T02:29:25.446Z,19.97
2024-05-09T02:33:27.888Z,18.95
2024-05-09T02:37:30.095Z,18.42
2024-05-09T02:41:32.188Z,17.63
2024-05-09T02:45:34.351Z,17.02
2024-05-09T02:49:36.671Z,17.63
2024-05-09T02:53:38.694Z,19.13
2024-05-09T02:57:40.760Z,17.77
2024-05-09T03:01:42.940Z,18.75
2024-05-09T03:05:45.474Z,19.37
2024-05-09T03:09:47.693Z,17.92
2024-05-09T03:13:53.118Z,16.67
2024-05-09T03:17:55.279Z,18.08
2024-05-09T03:21:58.874Z,15.93
2024-05-09T03:26:01.076Z,21.65
2024-05-09T03:30:05.511Z,16.90
2024-05-09T03:34:11.223Z,23.38
2024-05-09T03:38:13.586Z,16.88
2024-05-09T03:42:15.850Z,13.57
2024-05-09T03:46:17.835Z,19.00
2024-05-09T03:50:29.575Z,16.75
2024-05-09T03:54:36.068Z,16.00
2024-05-09T03:58:38.177Z,18.15
2024-05-09T04:02:43.406Z,15.40
2024-05-09T04:06:45.546Z,14.18
2024-05-09T04:10:49.065Z,17.00
2024-05-09T04:14:51.033Z,16.70
2024-05-09T04:18:53.614Z,14.15
2024-05-09T04:22:55.884Z,15.00
2024-05-09T04:26:57.873Z,13.50
2024-05-09T04:31:00.031Z,12.93
2024-05-09T04:35:02.325Z,18.10
2024-05-09T04:39:04.670Z,12.70
2024-05-09T04:43:13.634Z,12.63
2024-05-09T04:47:15.869Z,15.13
2024-05-09T04:51:18.191Z,14.23
2024-05-09T04:55:20.256Z,14.70
2024-05-09T04:59:22.352Z,14.70
2024-05-09T05:03:24.833Z,15.52
2024-05-09T05:07:27.029Z,15.60
2024-05-09T05:11:29.174Z,12.35
2024-05-09T05:15:31.135Z,13.98
2024-05-09T05:19:33.292Z,12.20
2024-05-09T05:23:35.495Z,11.75
2024-05-09T05:27:38.423Z,16.58
2024-05-09T05:31:40.610Z,12.68
2024-05-09T05:35:42.865Z,13.68
2024-05-09T05:39:45.069Z,12.00
2024-05-09T05:43:49.204Z,15.63
2024-05-09T05:47:52.098Z,12.68
2024-05-09T05:51:54.250Z,12.18
2024-05-09T05:55:56.299Z,11.20
2024-05-09T05:59:58.346Z,10.63
2024-05-09T06:04:00.633Z,15.93
2024-05-09T06:08:03.684Z,9.45
2024-05-09T06:12:06.207Z,15.80
2024-05-09T06:16:08.312Z,12.02
2024-05-09T06:20:20.133Z,9.27
2024-05-09T06:24:26.519Z,11.32
2024-05-09T06:28:29.717Z,13.65
2024-05-09T06:32:31.892Z,8.95
2024-05-09T06:36:34.028Z,10.10
2024-05-09T06:40:38.898Z,8.50
2024-05-09T06:44:42.434Z,12.13
2024-05-09T06:48:44.834Z,8.63
2024-05-09T06:52:47.687Z,10.30
2024-05-09T06:56:49.978Z,9.77
2024-05-09T07:00:52.432Z,7.78
2024-05-09T07:04:54.771Z,9.95
2024-05-09T07:08:56.776Z,8.73
2024-05-09T07:12:59.066Z,5.82
2024-05-09T07:17:07.486Z,8.25
2024-05-09T07:21:09.757Z,9.65
2024-05-09T07:25:11.896Z,8.80
2024-05-09T07:29:13.821Z,7.18
2024-05-09T07:33:22.519Z,7.80
2024-05-09T07:37:26.098Z,7.80
2024-05-09T07:41:28.214Z,5.95
2024-05-09T07:45:47.724Z,7.90
2024-05-09T07:51:32.811Z,8.18
2024-05-09T07:54:15.479Z,8.88
2024-05-09T07:58:17.602Z,13.00
2024-05-09T08:02:20.958Z,8.00
2024-05-09T08:06:23.992Z,7.00
2024-05-09T08:10:29.089Z,10.55
2024-05-09T08:14:32.740Z,7.00
2024-05-09T08:18:35.388Z,7.50
2024-05-09T08:22:37.685Z,13.80
2024-05-09T08:26:39.844Z,7.90
2024-05-09T08:30:42.933Z,8.75
2024-05-09T08:34:45.172Z,7.03
2024-05-09T08:38:47.348Z,9.68
2024-05-09T08:42:50.870Z,8.85
2024-05-09T08:46:53.598Z,5.97
2024-05-09T08:50:59.365Z,6.43
2024-05-09T08:55:02.094Z,7.07
2024-05-09T08:59:07.085Z,6.75
2024-05-09T09:03:11.632Z,6.43
2024-05-09T09:07:14.988Z,5.78
2024-05-09T09:11:17.139Z,6.00
2024-05-09T09:15:19.195Z,5.25
2024-05-09T09:19:23.629Z,5.53
2024-05-09T09:23:30.234Z,4.57
2024-05-09T09:27:33.947Z,4.45
2024-05-09T09:31:37.356Z,5.03
2024-05-09T09:35:40.768Z,3.50
2024-05-09T09:39:48.963Z,3.70
2024-05-09T09:43:53.670Z,6.80
2024-05-09T09:47:59.638Z,4.22
2024-05-09T09:52:02.867Z,4.28
2024-05-09T09:56:07.688Z,2.80
2024-05-09T10:00:11.982Z,6.05
2024-05-09T10:04:19.842Z,5.13
2024-05-09T10:08:23.860Z,3.30
2024-05-09T10:12:26.301Z,4.15
2024-05-09T10:16:32.054Z,3.67
2024-05-09T10:20:41.749Z,5.20
2024-05-09T10:24:54.266Z,4.47
2024-05-09T10:28:58.710Z,5.13
2024-05-09T10:33:00.999Z,8.38
2024-05-09T10:37:04.938Z,5.03
2024-05-09T10:41:08.732Z,3.92
2024-05-09T10:45:10.813Z,6.15
2024-05-09T10:49:14.880Z,4.75
2024-05-09T10:53:19.200Z,4.55
2024-05-09T10:57:22.025Z,6.05
2024-05-09T11:01:25.136Z,4.10
2024-05-09T11:05:27.712Z,8.48
2024-05-09T11:09:31.481Z,7.25
2024-05-09T11:13:36.174Z,5.85
2024-05-09T11:17:38.569Z,3.83
2024-05-09T11:21:40.772Z,5.82
2024-05-09T11:25:58.344Z,7.72
2024-05-09T11:30:01.741Z,4.47
2024-05-09T11:34:05.473Z,4.45
2024-05-09T11:38:07.680Z,4.43
2024-05-09T11:42:09.885Z,6.45
2024-05-09T11:46:12.271Z,7.55
2024-05-09T11:50:22.523Z,4.30
2024-05-09T11:54:29.814Z,6.97
2024-05-09T11:58:36.941Z,8.10
2024-05-09T12:02:39.145Z,3.10
2024-05-09T12:06:41.410Z,6.15
2024-05-09T12:10:43.675Z,6.13
2024-05-09T12:14:45.834Z,4.47
2024-05-09T12:18:48.220Z,4.63
2024-05-09T12:22:50.499Z,7.20
2024-05-09T12:26:52.725Z,6.32
2024-05-09T12:30:54.844Z,6.03
2024-05-09T12:34:57.010Z,3.67
2024-05-09T12:38:59.165Z,8.13
2024-05-09T12:43:01.398Z,6.15
2024-05-09T12:47:03.520Z,4.28
2024-05-09T12:51:06.085Z,5.53
2024-05-09T12:55:10.034Z,4.15
2024-05-09T12:59:12.372Z,5.40
2024-05-09T13:03:14.797Z,7.47
2024-05-09T13:07:17.200Z,11.98
2024-05-09T13:11:19.614Z,6.85
2024-05-09T13:15:21.771Z,5.18
2024-05-09T13:19:24.095Z,4.93
2024-05-09T13:23:26.450Z,5.68
2024-05-09T13:27:28.501Z,6.72
2024-05-09T13:31:30.825Z,3.10
2024-05-09T13:35:34.391Z,2.88
2024-05-09T13:39:36.758Z,4.63
2024-05-09T13:43:38.938Z,6.13
2024-05-09T13:47:41.357Z,4.25
2024-05-09T13:51:43.678Z,6.53
2024-05-09T13:55:46.142Z,5.70
2024-05-09T13:59:48.316Z,9.73
2024-05-09T14:03:50.511Z,4.35
2024-05-09T14:07:52.589Z,7.32
2024-05-09T14:11:54.623Z,6.82
2024-05-09T14:15:56.969Z,3.50
2024-05-09T14:19:59.314Z,3.88
2024-05-09T14:24:01.299Z,5.85
2024-05-09T14:28:04.029Z,4.30
2024-05-09T14:32:06.547Z,6.03
2024-05-09T14:36:08.722Z,6.22
2024-05-09T14:40:25.960Z,4.35
2024-05-09T14:44:33.283Z,3.45
2024-05-09T14:48:35.634Z,6.88
2024-05-09T14:52:37.737Z,4.05
2024-05-09T14:56:40.183Z,3.83
2024-05-09T15:00:46.714Z,3.58
2024-05-09T15:04:52.365Z,4.38
2024-05-09T15:08:58.952Z,5.95
2024-05-09T15:13:01.116Z,3.45
2024-05-09T15:17:03.506Z,3.88
2024-05-09T15:21:05.933Z,10.60
2024-05-09T15:25:08.042Z,7.53
2024-05-09T15:29:10.725Z,5.53
2024-05-09T15:33:12.911Z,4.35
2024-05-09T15:37:15.467Z,4.30
2024-05-09T15:41:17.480Z,5.38
2024-05-09T15:45:19.700Z,5.10
2024-05-09T15:49:21.828Z,4.30
2024-05-09T15:53:24.117Z,6.70
2024-05-09T15:57:26.260Z,5.65
2024-05-09T16:01:28.806Z,6.80
2024-05-09T16:05:31.129Z,4.97
2024-05-09T16:09:33.308Z,4.93
2024-05-09T16:13:35.335Z,4.47
2024-05-09T16:17:37.612Z,4.75
2024-05-09T16:21:39.793Z,6.07
2024-05-09T16:25:47.719Z,4.40
2024-05-09T16:29:50.072Z,6.68
2024-05-09T16:33:52.335Z,3.60
2024-05-09T16:37:54.553Z,5.65
2024-05-09T16:41:56.556Z,6.90
2024-05-09T16:45:58.730Z,5.72
2024-05-09T16:50:00.755Z,3.63
2024-05-09T16:54:02.937Z,5.30
2024-05-09T16:58:08.043Z,2.90
2024-05-09T17:02:10.461Z,3.80
2024-05-09T17:06:12.987Z,5.85
2024-05-09T17:10:22.112Z,4.75
2024-05-09T17:14:29.025Z,5.30
2024-05-09T17:18:31.855Z,3.17
2024-05-09T17:22:35.202Z,3.42
2024-05-09T17:26:37.423Z,3.75
2024-05-09T17:30:41.617Z,5.10
2024-05-09T17:34:45.071Z,4.65
2024-05-09T17:38:47.292Z,4.25
2024-05-09T17:42:49.497Z,4.47
2024-05-09T17:46:51.617Z,7.38
2024-05-09T17:50:53.615Z,4.22
2024-05-09T17:54:55.840Z,3.13
2024-05-09T17:58:57.951Z,4.03
2024-05-09T18:03:00.132Z,3.03
2024-05-09T18:07:02.104Z,3.03
2024-05-09T18:11:04.416Z,2.90
2024-05-09T18:15:06.702Z,5.57
2024-05-09T18:19:09.685Z,4.78
2024-05-09T18:23:17.273Z,3.33
2024-05-09T18:27:20.457Z,5.30
2024-05-09T18:31:22.669Z,5.13
2024-05-09T18:35:24.736Z,6.65
2024-05-09T18:39:26.905Z,5.63
2024-05-09T18:43:38.009Z,5.55
2024-05-09T18:47:44.591Z,5.72
2024-05-09T18:51:46.731Z,3.25
2024-05-09T18:55:48.918Z,4.18
2024-05-09T18:59:51.180Z,4.20
2024-05-09T19:03:53.585Z,4.72
2024-05-09T19:07:55.909Z,3.38
2024-05-09T19:12:00.590Z,7.55
2024-05-09T19:16:03.388Z,9.85
2024-05-09T19:20:06.277Z,5.70
2024-05-09T19:24:09.874Z,3.67
2024-05-09T19:28:12.208Z,3.95
2024-05-09T19:32:14.359Z,3.42
2024-05-09T19:36:19.577Z,3.75
2024-05-09T19:40:28.967Z,7.38
2024-05-09T19:44:35.489Z,11.27
2024-05-09T19:48:37.787Z,7.50
2024-05-09T19:52:40.205Z,4.18
2024-05-09T19:56:45.216Z,7.25
2024-05-09T20:00:47.864Z,6.03
2024-05-09T20:04:51.371Z,5.25
2024-05-09T20:08:57.157Z,4.30
2024-05-09T20:12:59.155Z,5.03
2024-05-09T20:17:01.465Z,6.38
2024-05-09T20:21:04.091Z,4.85
2024-05-09T20:25:06.696Z,4.75
2024-05-09T20:29:08.874Z,6.70
2024-05-09T20:33:12.415Z,5.70
2024-05-09T20:37:14.924Z,4.72
2024-05-09T20:41:17.140Z,12.10
2024-05-09T20:45:19.255Z,7.53
2024-05-09T20:49:22.234Z,5.80
2024-05-09T20:53:24.489Z,12.38
2024-05-09T20:57:26.707Z,5.35
2024-05-09T21:01:28.809Z,5.28
2024-05-09T21:05:31.113Z,8.70
2024-05-09T21:09:33.209Z,6.78
2024-05-09T21:13:35.730Z,4.63
2024-05-09T21:17:37.946Z,4.25
2024-05-09T21:21:41.013Z,6.13
2024-05-09T21:25:43.002Z,4.70
2024-05-09T21:29:45.353Z,7.15
2024-05-09T21:33:47.793Z,4.88
2024-05-09T21:37:50.007Z,7.03
2024-05-09T21:41:52.189Z,6.88
2024-05-09T21:45:54.178Z,6.20
2024-05-09T21:49:56.562Z,4.82
2024-05-09T21:53:58.994Z,7.00
2024-05-09T21:58:01.192Z,12.57
2024-05-09T22:02:03.691Z,7.07
2024-05-09T22:06:06.009Z,4.85
2024-05-09T22:10:15.970Z,7.68
2024-05-09T22:14:25.406Z,9.35
2024-05-09T22:18:27.495Z,5.50
2024-05-09T22:22:29.524Z,4.47
2024-05-09T22:26:31.446Z,7.65
2024-05-09T22:30:37.586Z,4.85
2024-05-09T22:34:41.776Z,7.28
2024-05-09T22:38:43.792Z,9.82
2024-05-09T22:42:45.885Z,6.78
2024-05-09T22:46:48.023Z,8.07
2024-05-09T22:50:50.200Z,5.43
2024-05-09T22:54:52.390Z,4.53
2024-05-09T22:58:55.230Z,6.75
2024-05-09T23:02:57.298Z,8.43
2024-05-09T23:06:59.488Z,5.78
2024-05-09T23:11:01.545Z,6.10
2024-05-09T23:15:03.706Z,7.07
2024-05-09T23:19:05.913Z,6.18
2024-05-09T23:23:09.769Z,4.67
2024-05-09T23:27:12.845Z,6.72
2024-05-09T23:31:15.522Z,5.38
2024-05-09T23:35:17.586Z,4.55
2024-05-09T23:39:19.680Z,6.22
2024-05-09T23:43:21.803Z,6.47
2024-05-09T23:47:24.150Z,6.75
2024-05-09T23:51:26.184Z,5.72
2024-05-09T23:55:28.655Z,7.72
2024-05-09T23:59:30.843Z,6.07
